sensor_id;sensor_type;location;lat;lon;timestamp;P1;durP1;ratioP1;P2;durP2;ratioP2
12482;SDS011;6306;47.134;15.344;2022-12-16T00:00:14;42.20;;;28.70;;
12482;SDS011;6306;47.134;15.344;2022-12-16T00:02:40;46.70;;;29.07;;
12482;SDS011;6306;47.134;15.344;2022-12-16T00:05:06;45.20;;;28.77;;
12482;SDS011;6306;47.134;15.344;2022-12-16T00:07:32;48.37;;;27.00;;
12482;SDS011;6306;47.134;15.344;2022-12-16T00:09:58;52.67;;;29.33;;
12482;SDS011;6306;47.134;15.344;2022-12-16T00:12:24;46.67;;;30.83;;
12482;SDS011;6306;47.134;15.344;2022-12-16T00:14:50;54.60;;;31.07;;
12482;SDS011;6306;47.134;15.344;2022-12-16T00:17:17;42.77;;;29.13;;
12482;SDS011;6306;47.134;15.344;2022-12-16T00:19:43;48.57;;;31.13;;
12482;SDS011;6306;47.134;15.344;2022-12-16T00:22:09;49.43;;;29.73;;
12482;SDS011;6306;47.134;15.344;2022-12-16T00:24:35;46.13;;;29.23;;
12482;SDS011;6306;47.134;15.344;2022-12-16T00:27:01;44.00;;;29.07;;
12482;SDS011;6306;47.134;15.344;2022-12-16T00:29:27;51.53;;;30.67;;
12482;SDS011;6306;47.134;15.344;2022-12-16T00:31:53;47.70;;;31.60;;
12482;SDS011;6306;47.134;15.344;2022-12-16T00:34:19;54.27;;;30.50;;
12482;SDS011;6306;47.134;15.344;2022-12-16T00:36:45;47.30;;;29.03;;
12482;SDS011;6306;47.134;15.344;2022-12-16T00:39:11;46.47;;;29.00;;
12482;SDS011;6306;47.134;15.344;2022-12-16T00:41:37;45.10;;;28.60;;
12482;SDS011;6306;47.134;15.344;2022-12-16T00:44:03;54.47;;;31.60;;
12482;SDS011;6306;47.134;15.344;2022-12-16T00:46:29;41.50;;;29.30;;
12482;SDS011;6306;47.134;15.344;2022-12-16T00:48:55;52.63;;;31.90;;
12482;SDS011;6306;47.134;15.344;2022-12-16T00:51:21;48.57;;;30.87;;
12482;SDS011;6306;47.134;15.344;2022-12-16T00:53:47;45.63;;;29.80;;
12482;SDS011;6306;47.134;15.344;2022-12-16T00:56:14;56.10;;;32.20;;
12482;SDS011;6306;47.134;15.344;2022-12-16T00:58:40;52.40;;;31.67;;
12482;SDS011;6306;47.134;15.344;2022-12-16T01:01:06;50.07;;;30.40;;
12482;SDS011;6306;47.134;15.344;2022-12-16T01:03:32;41.73;;;27.73;;
12482;SDS011;6306;47.134;15.344;2022-12-16T01:05:58;49.70;;;30.13;;
12482;SDS011;6306;47.134;15.344;2022-12-16T01:08:25;52.57;;;29.73;;
12482;SDS011;6306;47.134;15.344;2022-12-16T01:10:51;48.73;;;31.47;;
12482;SDS011;6306;47.134;15.344;2022-12-16T01:13:18;57.13;;;32.30;;
12482;SDS011;6306;47.134;15.344;2022-12-16T01:15:44;51.37;;;30.40;;
12482;SDS011;6306;47.134;15.344;2022-12-16T01:18:10;51.17;;;29.27;;
12482;SDS011;6306;47.134;15.344;2022-12-16T01:20:36;55.30;;;33.97;;
12482;SDS011;6306;47.134;15.344;2022-12-16T01:23:02;50.77;;;31.30;;
12482;SDS011;6306;47.134;15.344;2022-12-16T01:25:29;49.47;;;29.80;;
12482;SDS011;6306;47.134;15.344;2022-12-16T01:27:55;47.93;;;31.83;;
12482;SDS011;6306;47.134;15.344;2022-12-16T01:30:21;56.70;;;33.17;;
12482;SDS011;6306;47.134;15.344;2022-12-16T01:32:48;47.10;;;30.43;;
12482;SDS011;6306;47.134;15.344;2022-12-16T01:35:14;46.87;;;30.37;;
12482;SDS011;6306;47.134;15.344;2022-12-16T01:37:40;55.70;;;33.80;;
12482;SDS011;6306;47.134;15.344;2022-12-16T01:40:06;56.20;;;32.87;;
12482;SDS011;6306;47.134;15.344;2022-12-16T01:42:33;49.10;;;29.77;;
12482;SDS011;6306;47.134;15.344;2022-12-16T01:47:44;46.90;;;31.53;;
12482;SDS011;6306;47.134;15.344;2022-12-16T01:50:11;51.70;;;31.17;;
12482;SDS011;6306;47.134;15.344;2022-12-16T01:52:42;59.83;;;32.70;;
12482;SDS011;6306;47.134;15.344;2022-12-16T01:55:12;58.37;;;29.80;;
12482;SDS011;6306;47.134;15.344;2022-12-16T01:57:44;52.47;;;29.80;;
12482;SDS011;6306;47.134;15.344;2022-12-16T02:00:12;47.70;;;28.97;;
12482;SDS011;6306;47.134;15.344;2022-12-16T02:02:39;61.10;;;33.37;;
12482;SDS011;6306;47.134;15.344;2022-12-16T02:05:05;58.03;;;33.00;;
12482;SDS011;6306;47.134;15.344;2022-12-16T02:07:50;51.13;;;32.57;;
12482;SDS011;6306;47.134;15.344;2022-12-16T02:10:16;58.27;;;32.40;;
12482;SDS011;6306;47.134;15.344;2022-12-16T02:12:45;56.47;;;32.90;;
12482;SDS011;6306;47.134;15.344;2022-12-16T02:15:48;45.70;;;29.50;;
12482;SDS011;6306;47.134;15.344;2022-12-16T02:20:53;53.87;;;28.83;;
12482;SDS011;6306;47.134;15.344;2022-12-16T02:31:18;60.77;;;33.30;;
12482;SDS011;6306;47.134;15.344;2022-12-16T02:36:24;56.10;;;32.00;;
12482;SDS011;6306;47.134;15.344;2022-12-16T02:44:04;42.03;;;28.33;;
12482;SDS011;6306;47.134;15.344;2022-12-16T02:46:31;41.80;;;27.67;;
12482;SDS011;6306;47.134;15.344;2022-12-16T02:49:08;55.03;;;30.80;;
12482;SDS011;6306;47.134;15.344;2022-12-16T02:51:34;51.37;;;31.37;;
12482;SDS011;6306;47.134;15.344;2022-12-16T02:54:01;48.93;;;31.07;;
12482;SDS011;6306;47.134;15.344;2022-12-16T03:01:37;40.57;;;27.50;;
12482;SDS011;6306;47.134;15.344;2022-12-16T03:04:07;45.80;;;28.17;;
12482;SDS011;6306;47.134;15.344;2022-12-16T03:06:34;48.13;;;29.73;;
12482;SDS011;6306;47.134;15.344;2022-12-16T03:09:02;47.33;;;30.10;;
12482;SDS011;6306;47.134;15.344;2022-12-16T03:11:29;51.10;;;29.63;;
12482;SDS011;6306;47.134;15.344;2022-12-16T03:13:56;48.17;;;29.00;;
12482;SDS011;6306;47.134;15.344;2022-12-16T03:16:24;49.13;;;29.67;;
12482;SDS011;6306;47.134;15.344;2022-12-16T03:18:53;51.50;;;32.43;;
12482;SDS011;6306;47.134;15.344;2022-12-16T03:21:20;44.77;;;29.83;;
12482;SDS011;6306;47.134;15.344;2022-12-16T03:23:51;49.30;;;31.30;;
12482;SDS011;6306;47.134;15.344;2022-12-16T03:26:20;43.93;;;30.00;;
12482;SDS011;6306;47.134;15.344;2022-12-16T03:28:53;43.77;;;27.27;;
12482;SDS011;6306;47.134;15.344;2022-12-16T03:31:29;44.30;;;28.53;;
12482;SDS011;6306;47.134;15.344;2022-12-16T03:34:02;46.33;;;29.80;;
12482;SDS011;6306;47.134;15.344;2022-12-16T03:36:30;50.17;;;32.87;;
12482;SDS011;6306;47.134;15.344;2022-12-16T03:38:57;46.70;;;29.80;;
12482;SDS011;6306;47.134;15.344;2022-12-16T03:41:24;56.30;;;31.03;;
12482;SDS011;6306;47.134;15.344;2022-12-16T03:43:51;47.30;;;32.80;;
12482;SDS011;6306;47.134;15.344;2022-12-16T03:46:17;49.63;;;31.20;;
12482;SDS011;6306;47.134;15.344;2022-12-16T03:48:44;46.47;;;30.17;;
12482;SDS011;6306;47.134;15.344;2022-12-16T03:51:10;44.70;;;29.63;;
12482;SDS011;6306;47.134;15.344;2022-12-16T03:53:36;52.83;;;31.90;;
12482;SDS011;6306;47.134;15.344;2022-12-16T03:56:03;40.70;;;27.33;;
12482;SDS011;6306;47.134;15.344;2022-12-16T03:58:29;44.97;;;30.03;;
12482;SDS011;6306;47.134;15.344;2022-12-16T04:00:55;44.50;;;27.57;;
12482;SDS011;6306;47.134;15.344;2022-12-16T04:03:21;50.37;;;34.07;;
12482;SDS011;6306;47.134;15.344;2022-12-16T04:05:47;55.23;;;32.30;;
12482;SDS011;6306;47.134;15.344;2022-12-16T04:08:13;43.33;;;30.00;;
12482;SDS011;6306;47.134;15.344;2022-12-16T04:10:39;47.10;;;29.73;;
12482;SDS011;6306;47.134;15.344;2022-12-16T04:13:23;48.33;;;30.40;;
12482;SDS011;6306;47.134;15.344;2022-12-16T04:16:15;47.87;;;31.37;;
12482;SDS011;6306;47.134;15.344;2022-12-16T04:19:00;44.77;;;30.33;;
12482;SDS011;6306;47.134;15.344;2022-12-16T04:21:45;45.67;;;28.90;;
12482;SDS011;6306;47.134;15.344;2022-12-16T04:24:30;41.17;;;27.10;;
12482;SDS011;6306;47.134;15.344;2022-12-16T04:26:56;51.20;;;30.33;;
12482;SDS011;6306;47.134;15.344;2022-12-16T04:29:41;46.87;;;29.30;;
12482;SDS011;6306;47.134;15.344;2022-12-16T04:32:26;49.00;;;29.63;;
12482;SDS011;6306;47.134;15.344;2022-12-16T04:35:13;54.30;;;30.70;;
12482;SDS011;6306;47.134;15.344;2022-12-16T04:37:57;44.80;;;29.17;;
12482;SDS011;6306;47.134;15.344;2022-12-16T04:40:42;51.27;;;29.50;;
12482;SDS011;6306;47.134;15.344;2022-12-16T04:43:26;48.00;;;28.80;;
12482;SDS011;6306;47.134;15.344;2022-12-16T04:46:11;45.50;;;30.37;;
12482;SDS011;6306;47.134;15.344;2022-12-16T04:48:55;52.73;;;32.20;;
12482;SDS011;6306;47.134;15.344;2022-12-16T04:51:40;51.53;;;28.60;;
12482;SDS011;6306;47.134;15.344;2022-12-16T04:54:24;46.60;;;28.43;;
12482;SDS011;6306;47.134;15.344;2022-12-16T04:57:09;45.17;;;29.03;;
12482;SDS011;6306;47.134;15.344;2022-12-16T04:59:53;50.73;;;29.67;;
12482;SDS011;6306;47.134;15.344;2022-12-16T05:02:55;56.90;;;32.33;;
12482;SDS011;6306;47.134;15.344;2022-12-16T05:05:39;48.17;;;29.93;;
12482;SDS011;6306;47.134;15.344;2022-12-16T05:08:24;43.67;;;27.43;;
12482;SDS011;6306;47.134;15.344;2022-12-16T05:11:09;40.70;;;28.80;;
12482;SDS011;6306;47.134;15.344;2022-12-16T05:13:53;54.90;;;31.83;;
12482;SDS011;6306;47.134;15.344;2022-12-16T05:16:38;49.00;;;31.50;;
12482;SDS011;6306;47.134;15.344;2022-12-16T05:19:22;48.20;;;30.00;;
12482;SDS011;6306;47.134;15.344;2022-12-16T05:22:07;41.90;;;28.43;;
12482;SDS011;6306;47.134;15.344;2022-12-16T05:24:51;48.17;;;29.97;;
12482;SDS011;6306;47.134;15.344;2022-12-16T05:27:36;44.27;;;29.00;;
12482;SDS011;6306;47.134;15.344;2022-12-16T05:30:21;55.57;;;29.23;;
12482;SDS011;6306;47.134;15.344;2022-12-16T05:33:05;46.00;;;31.30;;
12482;SDS011;6306;47.134;15.344;2022-12-16T05:35:50;43.43;;;28.47;;
12482;SDS011;6306;47.134;15.344;2022-12-16T05:38:34;43.33;;;27.40;;
12482;SDS011;6306;47.134;15.344;2022-12-16T05:41:19;42.80;;;27.90;;
12482;SDS011;6306;47.134;15.344;2022-12-16T05:44:04;51.63;;;28.10;;
12482;SDS011;6306;47.134;15.344;2022-12-16T05:46:48;39.53;;;25.50;;
12482;SDS011;6306;47.134;15.344;2022-12-16T05:49:33;38.90;;;27.77;;
12482;SDS011;6306;47.134;15.344;2022-12-16T05:52:18;51.47;;;28.50;;
12482;SDS011;6306;47.134;15.344;2022-12-16T05:55:03;47.23;;;30.93;;
12482;SDS011;6306;47.134;15.344;2022-12-16T05:57:49;39.90;;;28.00;;
12482;SDS011;6306;47.134;15.344;2022-12-16T06:00:34;55.60;;;28.20;;
12482;SDS011;6306;47.134;15.344;2022-12-16T06:03:19;49.40;;;28.27;;
12482;SDS011;6306;47.134;15.344;2022-12-16T06:06:03;43.10;;;29.90;;
12482;SDS011;6306;47.134;15.344;2022-12-16T06:08:48;47.37;;;29.70;;
12482;SDS011;6306;47.134;15.344;2022-12-16T06:11:32;56.37;;;32.73;;
12482;SDS011;6306;47.134;15.344;2022-12-16T06:14:17;44.13;;;28.03;;
12482;SDS011;6306;47.134;15.344;2022-12-16T06:17:01;46.63;;;29.50;;
12482;SDS011;6306;47.134;15.344;2022-12-16T06:19:46;42.93;;;28.13;;
12482;SDS011;6306;47.134;15.344;2022-12-16T06:22:30;65.17;;;32.90;;
12482;SDS011;6306;47.134;15.344;2022-12-16T06:25:15;51.80;;;32.00;;
12482;SDS011;6306;47.134;15.344;2022-12-16T06:27:59;51.13;;;30.77;;
12482;SDS011;6306;47.134;15.344;2022-12-16T06:30:44;53.33;;;29.63;;
12482;SDS011;6306;47.134;15.344;2022-12-16T06:33:28;52.67;;;30.43;;
12482;SDS011;6306;47.134;15.344;2022-12-16T06:36:13;51.77;;;31.93;;
12482;SDS011;6306;47.134;15.344;2022-12-16T06:38:58;52.40;;;29.60;;
12482;SDS011;6306;47.134;15.344;2022-12-16T06:41:42;56.60;;;30.80;;
12482;SDS011;6306;47.134;15.344;2022-12-16T06:44:27;54.27;;;28.97;;
12482;SDS011;6306;47.134;15.344;2022-12-16T06:47:11;55.90;;;32.00;;
12482;SDS011;6306;47.134;15.344;2022-12-16T06:49:56;49.80;;;30.87;;
12482;SDS011;6306;47.134;15.344;2022-12-16T06:52:44;53.47;;;31.47;;
12482;SDS011;6306;47.134;15.344;2022-12-16T06:55:29;57.60;;;34.77;;
12482;SDS011;6306;47.134;15.344;2022-12-16T06:58:13;56.70;;;35.60;;
12482;SDS011;6306;47.134;15.344;2022-12-16T07:00:58;54.90;;;34.10;;
12482;SDS011;6306;47.134;15.344;2022-12-16T07:03:42;52.77;;;32.40;;
12482;SDS011;6306;47.134;15.344;2022-12-16T07:06:27;49.23;;;32.73;;
12482;SDS011;6306;47.134;15.344;2022-12-16T07:09:11;53.60;;;29.83;;
12482;SDS011;6306;47.134;15.344;2022-12-16T07:11:56;53.57;;;29.83;;
12482;SDS011;6306;47.134;15.344;2022-12-16T07:14:40;60.20;;;31.60;;
12482;SDS011;6306;47.134;15.344;2022-12-16T07:17:25;56.80;;;31.37;;
12482;SDS011;6306;47.134;15.344;2022-12-16T07:20:09;53.63;;;32.10;;
12482;SDS011;6306;47.134;15.344;2022-12-16T07:22:54;51.73;;;34.70;;
12482;SDS011;6306;47.134;15.344;2022-12-16T07:25:38;61.10;;;34.53;;
12482;SDS011;6306;47.134;15.344;2022-12-16T07:28:23;51.10;;;32.93;;
12482;SDS011;6306;47.134;15.344;2022-12-16T07:31:07;58.93;;;36.10;;
12482;SDS011;6306;47.134;15.344;2022-12-16T07:33:52;57.10;;;33.93;;
12482;SDS011;6306;47.134;15.344;2022-12-16T07:36:36;51.03;;;33.40;;
12482;SDS011;6306;47.134;15.344;2022-12-16T07:39:21;61.47;;;37.10;;
12482;SDS011;6306;47.134;15.344;2022-12-16T07:42:06;57.87;;;35.13;;
12482;SDS011;6306;47.134;15.344;2022-12-16T07:44:50;55.43;;;33.20;;
12482;SDS011;6306;47.134;15.344;2022-12-16T07:47:35;57.83;;;35.07;;
12482;SDS011;6306;47.134;15.344;2022-12-16T07:50:19;53.63;;;33.40;;
12482;SDS011;6306;47.134;15.344;2022-12-16T07:53:04;54.50;;;32.60;;
12482;SDS011;6306;47.134;15.344;2022-12-16T07:55:49;57.90;;;38.63;;
12482;SDS011;6306;47.134;15.344;2022-12-16T07:58:34;56.70;;;32.60;;
12482;SDS011;6306;47.134;15.344;2022-12-16T08:01:18;60.73;;;34.90;;
12482;SDS011;6306;47.134;15.344;2022-12-16T08:04:03;49.60;;;32.20;;
12482;SDS011;6306;47.134;15.344;2022-12-16T08:06:47;58.90;;;36.37;;
12482;SDS011;6306;47.134;15.344;2022-12-16T08:09:32;56.10;;;32.37;;
12482;SDS011;6306;47.134;15.344;2022-12-16T08:12:17;63.33;;;33.27;;
12482;SDS011;6306;47.134;15.344;2022-12-16T08:15:01;57.80;;;34.07;;
12482;SDS011;6306;47.134;15.344;2022-12-16T08:17:50;59.40;;;33.00;;
12482;SDS011;6306;47.134;15.344;2022-12-16T08:20:34;63.70;;;34.10;;
12482;SDS011;6306;47.134;15.344;2022-12-16T08:23:19;53.10;;;33.73;;
12482;SDS011;6306;47.134;15.344;2022-12-16T08:26:04;57.30;;;36.50;;
12482;SDS011;6306;47.134;15.344;2022-12-16T08:28:48;55.47;;;35.27;;
12482;SDS011;6306;47.134;15.344;2022-12-16T08:31:34;54.37;;;34.93;;
12482;SDS011;6306;47.134;15.344;2022-12-16T08:34:19;54.10;;;31.83;;
12482;SDS011;6306;47.134;15.344;2022-12-16T08:37:03;51.83;;;34.70;;
12482;SDS011;6306;47.134;15.344;2022-12-16T08:39:48;58.17;;;33.90;;
12482;SDS011;6306;47.134;15.344;2022-12-16T08:42:33;54.53;;;33.33;;
12482;SDS011;6306;47.134;15.344;2022-12-16T08:45:17;62.83;;;36.23;;
12482;SDS011;6306;47.134;15.344;2022-12-16T08:48:02;63.40;;;35.33;;
12482;SDS011;6306;47.134;15.344;2022-12-16T08:50:46;53.63;;;34.53;;
12482;SDS011;6306;47.134;15.344;2022-12-16T08:53:31;51.13;;;32.87;;
12482;SDS011;6306;47.134;15.344;2022-12-16T08:56:16;62.57;;;35.10;;
12482;SDS011;6306;47.134;15.344;2022-12-16T08:59:00;59.50;;;35.17;;
12482;SDS011;6306;47.134;15.344;2022-12-16T09:01:45;66.87;;;35.67;;
12482;SDS011;6306;47.134;15.344;2022-12-16T09:04:29;59.60;;;37.47;;
12482;SDS011;6306;47.134;15.344;2022-12-16T09:07:14;57.87;;;35.33;;
12482;SDS011;6306;47.134;15.344;2022-12-16T09:09:59;51.30;;;34.83;;
12482;SDS011;6306;47.134;15.344;2022-12-16T09:12:43;56.40;;;36.47;;
12482;SDS011;6306;47.134;15.344;2022-12-16T09:15:28;49.63;;;30.93;;
12482;SDS011;6306;47.134;15.344;2022-12-16T09:18:13;53.07;;;33.70;;
12482;SDS011;6306;47.134;15.344;2022-12-16T09:20:57;58.27;;;33.80;;
12482;SDS011;6306;47.134;15.344;2022-12-16T09:23:42;58.27;;;34.33;;
12482;SDS011;6306;47.134;15.344;2022-12-16T09:26:27;58.40;;;34.60;;
12482;SDS011;6306;47.134;15.344;2022-12-16T09:29:13;57.93;;;36.17;;
12482;SDS011;6306;47.134;15.344;2022-12-16T09:31:57;49.43;;;29.97;;
12482;SDS011;6306;47.134;15.344;2022-12-16T09:34:42;56.70;;;35.30;;
12482;SDS011;6306;47.134;15.344;2022-12-16T09:37:26;63.90;;;35.30;;
12482;SDS011;6306;47.134;15.344;2022-12-16T09:40:12;62.23;;;36.87;;
12482;SDS011;6306;47.134;15.344;2022-12-16T09:46:07;58.63;;;35.13;;
12482;SDS011;6306;47.134;15.344;2022-12-16T09:48:59;60.17;;;36.17;;
12482;SDS011;6306;47.134;15.344;2022-12-16T09:51:45;50.43;;;33.73;;
12482;SDS011;6306;47.134;15.344;2022-12-16T09:54:31;55.93;;;34.60;;
12482;SDS011;6306;47.134;15.344;2022-12-16T09:57:18;54.10;;;34.63;;
12482;SDS011;6306;47.134;15.344;2022-12-16T10:00:21;63.20;;;35.00;;
12482;SDS011;6306;47.134;15.344;2022-12-16T10:03:12;50.03;;;32.53;;
12482;SDS011;6306;47.134;15.344;2022-12-16T10:06:27;45.10;;;32.00;;
12482;SDS011;6306;47.134;15.344;2022-12-16T10:12:07;61.43;;;35.57;;
12482;SDS011;6306;47.134;15.344;2022-12-16T10:15:18;47.80;;;29.03;;
12482;SDS011;6306;47.134;15.344;2022-12-16T10:17:59;56.70;;;35.87;;
12482;SDS011;6306;47.134;15.344;2022-12-16T10:20:46;49.07;;;31.57;;
12482;SDS011;6306;47.134;15.344;2022-12-16T10:29:20;47.23;;;32.67;;
12482;SDS011;6306;47.134;15.344;2022-12-16T10:38:04;59.03;;;37.63;;
12482;SDS011;6306;47.134;15.344;2022-12-16T10:40:49;63.90;;;37.03;;
12482;SDS011;6306;47.134;15.344;2022-12-16T10:43:34;52.17;;;32.93;;
12482;SDS011;6306;47.134;15.344;2022-12-16T10:46:22;53.20;;;33.90;;
12482;SDS011;6306;47.134;15.344;2022-12-16T10:49:29;49.97;;;33.00;;
12482;SDS011;6306;47.134;15.344;2022-12-16T10:52:14;51.57;;;34.87;;
12482;SDS011;6306;47.134;15.344;2022-12-16T10:58:05;47.13;;;30.33;;
12482;SDS011;6306;47.134;15.344;2022-12-16T11:00:53;54.27;;;33.47;;
12482;SDS011;6306;47.134;15.344;2022-12-16T11:03:38;71.73;;;36.60;;
12482;SDS011;6306;47.134;15.344;2022-12-16T11:06:37;56.40;;;34.37;;
12482;SDS011;6306;47.134;15.344;2022-12-16T11:09:24;55.00;;;35.07;;
12482;SDS011;6306;47.134;15.344;2022-12-16T11:18:04;65.43;;;35.77;;
12482;SDS011;6306;47.134;15.344;2022-12-16T11:21:07;58.47;;;35.77;;
12482;SDS011;6306;47.134;15.344;2022-12-16T11:24:15;51.03;;;31.47;;
12482;SDS011;6306;47.134;15.344;2022-12-16T11:27:43;67.80;;;37.80;;
12482;SDS011;6306;47.134;15.344;2022-12-16T11:30:12;57.10;;;35.63;;
12482;SDS011;6306;47.134;15.344;2022-12-16T11:32:59;46.70;;;30.10;;
12482;SDS011;6306;47.134;15.344;2022-12-16T11:35:45;47.63;;;30.97;;
12482;SDS011;6306;47.134;15.344;2022-12-16T11:38:39;55.00;;;30.80;;
12482;SDS011;6306;47.134;15.344;2022-12-16T11:41:28;56.57;;;32.93;;
12482;SDS011;6306;47.134;15.344;2022-12-16T11:44:18;48.87;;;30.73;;
12482;SDS011;6306;47.134;15.344;2022-12-16T11:47:04;46.17;;;28.10;;
12482;SDS011;6306;47.134;15.344;2022-12-16T11:49:52;47.53;;;30.67;;
12482;SDS011;6306;47.134;15.344;2022-12-16T11:52:37;51.27;;;29.40;;
12482;SDS011;6306;47.134;15.344;2022-12-16T11:55:23;54.03;;;31.80;;
12482;SDS011;6306;47.134;15.344;2022-12-16T11:58:27;49.87;;;29.10;;
12482;SDS011;6306;47.134;15.344;2022-12-16T12:01:29;41.97;;;27.40;;
12482;SDS011;6306;47.134;15.344;2022-12-16T12:04:16;47.93;;;28.27;;
12482;SDS011;6306;47.134;15.344;2022-12-16T12:13:11;44.40;;;26.60;;
12482;SDS011;6306;47.134;15.344;2022-12-16T12:15:57;44.00;;;26.50;;
12482;SDS011;6306;47.134;15.344;2022-12-16T12:18:49;43.63;;;27.00;;
12482;SDS011;6306;47.134;15.344;2022-12-16T12:25:01;50.63;;;28.57;;
12482;SDS011;6306;47.134;15.344;2022-12-16T12:28:03;45.57;;;27.30;;
12482;SDS011;6306;47.134;15.344;2022-12-16T12:30:55;50.33;;;30.30;;
12482;SDS011;6306;47.134;15.344;2022-12-16T12:36:40;54.50;;;32.07;;
12482;SDS011;6306;47.134;15.344;2022-12-16T12:39:31;60.00;;;34.03;;
12482;SDS011;6306;47.134;15.344;2022-12-16T12:59:29;51.50;;;28.33;;
12482;SDS011;6306;47.134;15.344;2022-12-16T13:02:17;41.63;;;27.73;;
12482;SDS011;6306;47.134;15.344;2022-12-16T13:05:03;49.37;;;26.40;;
12482;SDS011;6306;47.134;15.344;2022-12-16T13:07:48;39.23;;;24.67;;
12482;SDS011;6306;47.134;15.344;2022-12-16T13:10:34;42.20;;;25.43;;
12482;SDS011;6306;47.134;15.344;2022-12-16T13:13:25;38.03;;;25.17;;
12482;SDS011;6306;47.134;15.344;2022-12-16T13:16:16;44.13;;;25.93;;
12482;SDS011;6306;47.134;15.344;2022-12-16T13:25:47;37.53;;;22.63;;
12482;SDS011;6306;47.134;15.344;2022-12-16T13:28:34;44.57;;;23.43;;
12482;SDS011;6306;47.134;15.344;2022-12-16T13:31:19;36.83;;;24.03;;
12482;SDS011;6306;47.134;15.344;2022-12-16T13:34:26;37.73;;;23.63;;
12482;SDS011;6306;47.134;15.344;2022-12-16T13:37:17;34.77;;;21.90;;
12482;SDS011;6306;47.134;15.344;2022-12-16T13:42:55;30.73;;;19.90;;
12482;SDS011;6306;47.134;15.344;2022-12-16T13:45:41;30.17;;;20.17;;
12482;SDS011;6306;47.134;15.344;2022-12-16T13:48:34;31.93;;;20.63;;
12482;SDS011;6306;47.134;15.344;2022-12-16T13:54:32;34.47;;;21.07;;
12482;SDS011;6306;47.134;15.344;2022-12-16T13:57:18;33.03;;;20.27;;
12482;SDS011;6306;47.134;15.344;2022-12-16T14:00:04;32.90;;;18.77;;
12482;SDS011;6306;47.134;15.344;2022-12-16T14:02:59;30.40;;;21.40;;
12482;SDS011;6306;47.134;15.344;2022-12-16T14:05:45;31.93;;;19.77;;
12482;SDS011;6306;47.134;15.344;2022-12-16T14:08:32;29.53;;;17.00;;
12482;SDS011;6306;47.134;15.344;2022-12-16T14:14:24;38.17;;;19.60;;
12482;SDS011;6306;47.134;15.344;2022-12-16T14:17:12;33.63;;;18.97;;
12482;SDS011;6306;47.134;15.344;2022-12-16T14:20:10;36.43;;;19.83;;
12482;SDS011;6306;47.134;15.344;2022-12-16T14:22:58;31.20;;;19.00;;
12482;SDS011;6306;47.134;15.344;2022-12-16T14:25:46;31.03;;;20.43;;
12482;SDS011;6306;47.134;15.344;2022-12-16T14:31:25;29.13;;;16.90;;
12482;SDS011;6306;47.134;15.344;2022-12-16T14:34:13;29.80;;;19.60;;
12482;SDS011;6306;47.134;15.344;2022-12-16T14:36:58;31.43;;;16.63;;
12482;SDS011;6306;47.134;15.344;2022-12-16T14:39:47;29.20;;;17.10;;
12482;SDS011;6306;47.134;15.344;2022-12-16T14:42:32;27.47;;;16.90;;
12482;SDS011;6306;47.134;15.344;2022-12-16T14:45:30;36.80;;;19.00;;
12482;SDS011;6306;47.134;15.344;2022-12-16T14:48:20;36.33;;;17.80;;
12482;SDS011;6306;47.134;15.344;2022-12-16T14:54:16;38.13;;;19.40;;
12482;SDS011;6306;47.134;15.344;2022-12-16T14:57:02;31.03;;;19.17;;
12482;SDS011;6306;47.134;15.344;2022-12-16T14:59:46;34.20;;;20.50;;
12482;SDS011;6306;47.134;15.344;2022-12-16T15:02:35;38.50;;;19.97;;
12482;SDS011;6306;47.134;15.344;2022-12-16T15:05:25;31.97;;;16.87;;
12482;SDS011;6306;47.134;15.344;2022-12-16T15:08:12;33.67;;;18.60;;
12482;SDS011;6306;47.134;15.344;2022-12-16T15:10:57;34.40;;;18.70;;
12482;SDS011;6306;47.134;15.344;2022-12-16T15:13:42;30.03;;;18.87;;
12482;SDS011;6306;47.134;15.344;2022-12-16T15:16:29;43.57;;;20.47;;
12482;SDS011;6306;47.134;15.344;2022-12-16T15:19:16;34.57;;;18.77;;
12482;SDS011;6306;47.134;15.344;2022-12-16T15:22:02;31.37;;;19.77;;
12482;SDS011;6306;47.134;15.344;2022-12-16T15:24:46;34.00;;;18.17;;
12482;SDS011;6306;47.134;15.344;2022-12-16T15:27:35;30.27;;;17.73;;
12482;SDS011;6306;47.134;15.344;2022-12-16T15:33:18;38.33;;;18.90;;
12482;SDS011;6306;47.134;15.344;2022-12-16T15:36:03;30.10;;;17.97;;
12482;SDS011;6306;47.134;15.344;2022-12-16T15:38:48;30.20;;;18.50;;
12482;SDS011;6306;47.134;15.344;2022-12-16T15:41:34;35.07;;;18.07;;
12482;SDS011;6306;47.134;15.344;2022-12-16T15:44:21;31.13;;;19.80;;
12482;SDS011;6306;47.134;15.344;2022-12-16T15:47:19;35.00;;;21.50;;
12482;SDS011;6306;47.134;15.344;2022-12-16T15:50:05;33.20;;;20.07;;
12482;SDS011;6306;47.134;15.344;2022-12-16T15:52:50;28.40;;;18.87;;
12482;SDS011;6306;47.134;15.344;2022-12-16T15:55:39;37.30;;;21.37;;
12482;SDS011;6306;47.134;15.344;2022-12-16T15:58:28;29.77;;;20.40;;
12482;SDS011;6306;47.134;15.344;2022-12-16T16:01:14;37.07;;;20.80;;
12482;SDS011;6306;47.134;15.344;2022-12-16T16:03:59;35.43;;;21.83;;
12482;SDS011;6306;47.134;15.344;2022-12-16T16:06:46;31.17;;;20.07;;
12482;SDS011;6306;47.134;15.344;2022-12-16T16:09:32;28.77;;;19.60;;
12482;SDS011;6306;47.134;15.344;2022-12-16T16:12:17;30.67;;;18.03;;
12482;SDS011;6306;47.134;15.344;2022-12-16T16:15:03;32.97;;;18.60;;
12482;SDS011;6306;47.134;15.344;2022-12-16T16:17:50;31.40;;;17.23;;
12482;SDS011;6306;47.134;15.344;2022-12-16T16:20:37;41.17;;;20.40;;
12482;SDS011;6306;47.134;15.344;2022-12-16T16:23:21;34.17;;;19.10;;
12482;SDS011;6306;47.134;15.344;2022-12-16T16:26:07;31.70;;;19.33;;
12482;SDS011;6306;47.134;15.344;2022-12-16T16:28:53;34.30;;;20.20;;
12482;SDS011;6306;47.134;15.344;2022-12-16T16:31:37;31.90;;;18.77;;
12482;SDS011;6306;47.134;15.344;2022-12-16T16:34:22;32.10;;;23.07;;
12482;SDS011;6306;47.134;15.344;2022-12-16T16:37:08;29.53;;;18.73;;
12482;SDS011;6306;47.134;15.344;2022-12-16T16:39:55;26.60;;;15.67;;
12482;SDS011;6306;47.134;15.344;2022-12-16T16:42:39;29.60;;;16.47;;
12482;SDS011;6306;47.134;15.344;2022-12-16T16:45:24;27.30;;;17.57;;
12482;SDS011;6306;47.134;15.344;2022-12-16T16:48:16;29.57;;;16.30;;
12482;SDS011;6306;47.134;15.344;2022-12-16T16:51:02;28.27;;;16.57;;
12482;SDS011;6306;47.134;15.344;2022-12-16T16:53:47;31.87;;;18.30;;
12482;SDS011;6306;47.134;15.344;2022-12-16T16:56:33;27.83;;;15.83;;
12482;SDS011;6306;47.134;15.344;2022-12-16T16:59:20;31.10;;;18.10;;
12482;SDS011;6306;47.134;15.344;2022-12-16T17:02:13;24.27;;;15.43;;
12482;SDS011;6306;47.134;15.344;2022-12-16T17:04:59;27.47;;;15.80;;
12482;SDS011;6306;47.134;15.344;2022-12-16T17:07:44;30.40;;;18.10;;
12482;SDS011;6306;47.134;15.344;2022-12-16T17:10:29;34.17;;;19.20;;
12482;SDS011;6306;47.134;15.344;2022-12-16T17:13:14;31.00;;;19.83;;
12482;SDS011;6306;47.134;15.344;2022-12-16T17:15:59;31.40;;;21.70;;
12482;SDS011;6306;47.134;15.344;2022-12-16T17:18:43;39.77;;;24.57;;
12482;SDS011;6306;47.134;15.344;2022-12-16T17:21:28;42.73;;;25.80;;
12482;SDS011;6306;47.134;15.344;2022-12-16T17:24:12;45.23;;;26.77;;
12482;SDS011;6306;47.134;15.344;2022-12-16T17:26:57;39.63;;;26.33;;
12482;SDS011;6306;47.134;15.344;2022-12-16T17:29:42;42.30;;;26.23;;
12482;SDS011;6306;47.134;15.344;2022-12-16T17:32:26;47.10;;;26.00;;